createdAt,value
2019-04-24T00:11:41.526Z,10.20
2019-04-24T00:15:46.622Z,10.90
2019-04-24T00:20:09.833Z,9.20
2019-04-24T00:28:13.136Z,8.97
2019-04-24T00:36:57.980Z,9.20
2019-04-24T00:41:15.380Z,9.70
2019-04-24T01:06:32.226Z,10.87
2019-04-24T01:14:59.952Z,11.70
2019-04-24T01:18:56.960Z,10.73
2019-04-24T01:23:18.774Z,10.03
2019-04-24T01:27:24.564Z,11.20
2019-04-24T01:31:36.938Z,12.83
2019-04-24T01:40:28.481Z,13.00
2019-04-24T01:44:31.653Z,12.80
2019-04-24T01:48:37.552Z,12.13
2019-04-24T01:52:48.434Z,10.40
2019-04-24T02:05:19.816Z,9.40
2019-04-24T02:09:33.162Z,9.87
2019-04-24T02:13:30.936Z,10.47
2019-04-24T02:17:52.099Z,9.90
2019-04-24T02:22:01.873Z,9.30
2019-04-24T02:26:20.076Z,9.50
2019-04-24T02:30:45.760Z,9.90
2019-04-24T02:34:41.194Z,10.18
2019-04-24T02:43:30.414Z,10.47
2019-04-24T02:52:38.600Z,9.80
2019-04-24T02:56:10.253Z,9.30
2019-04-24T03:00:15.119Z,9.10
2019-04-24T03:04:25.728Z,8.30
2019-04-24T03:13:11.997Z,10.47
2019-04-24T03:17:22.903Z,9.30
2019-04-24T03:21:24.510Z,8.90
2019-04-24T03:30:28.380Z,9.00
2019-04-24T03:46:45.057Z,9.10
2019-04-24T04:16:30.287Z,9.20
2019-04-24T04:20:34.467Z,7.80
2019-04-24T04:46:07.985Z,10.07
2019-04-24T04:54:08.129Z,8.50
2019-04-24T05:11:22.386Z,9.47
2019-04-24T05:28:07.280Z,8.90
2019-04-24T05:32:32.585Z,10.10
2019-04-24T05:45:14.921Z,9.60
2019-04-24T05:49:25.932Z,9.40
2019-04-24T06:02:41.382Z,8.05
2019-04-24T06:11:14.417Z,9.83
2019-04-24T06:19:42.283Z,8.50
2019-04-24T06:37:00.968Z,10.57
2019-04-24T06:41:16.455Z,7.93
2019-04-24T06:45:21.015Z,9.40
2019-04-24T06:49:12.091Z,9.40
2019-04-24T06:53:27.724Z,10.17
2019-04-24T06:57:40.207Z,8.53
2019-04-24T07:02:08.008Z,9.57
2019-04-24T07:06:22.422Z,9.60
2019-04-24T07:14:47.953Z,9.97
2019-04-24T07:19:10.105Z,9.03
2019-04-24T07:23:30.689Z,8.77
2019-04-24T07:27:48.939Z,8.93
2019-04-24T07:32:19.135Z,9.10
2019-04-24T07:36:31.554Z,9.53
2019-04-24T07:40:32.178Z,9.40
2019-04-24T07:44:42.606Z,9.57
2019-04-24T08:01:33.602Z,10.20
2019-04-24T08:05:32.709Z,9.83
2019-04-24T08:15:03.295Z,10.43
2019-04-24T08:18:41.428Z,10.10
2019-04-24T08:22:55.842Z,9.30
2019-04-24T08:27:19.356Z,8.47
2019-04-24T08:31:33.298Z,9.73
2019-04-24T08:35:52.709Z,9.07
2019-04-24T08:40:07.855Z,9.80
2019-04-24T08:44:20.954Z,9.50
2019-04-24T09:01:46.699Z,8.63
2019-04-24T09:05:51.739Z,9.27
2019-04-24T09:14:28.072Z,9.10
2019-04-24T09:18:50.294Z,7.10
2019-04-24T09:27:19.009Z,6.10
2019-04-24T09:31:10.111Z,6.37
2019-04-24T09:35:56.939Z,6.33
2019-04-24T09:40:22.234Z,6.00
2019-04-24T09:44:12.626Z,7.03
2019-04-24T09:56:52.974Z,6.50
2019-04-24T10:09:40.890Z,6.43
2019-04-24T10:13:51.217Z,6.60
2019-04-24T10:22:03.265Z,6.73
2019-04-24T10:26:23.557Z,5.93
2019-04-24T10:30:50.582Z,5.67
2019-04-24T10:34:49.412Z,6.25
2019-04-24T10:43:28.721Z,5.03
2019-04-24T10:48:06.585Z,6.00
2019-04-24T11:00:32.462Z,5.20
2019-04-24T11:04:59.700Z,5.55
2019-04-24T11:09:08.694Z,4.33
2019-04-24T11:13:17.425Z,4.63
2019-04-24T11:21:50.570Z,4.67
2019-04-24T11:26:07.476Z,4.10
2019-04-24T11:34:51.380Z,4.83
2019-04-24T11:39:05.306Z,4.10
2019-04-24T11:42:56.117Z,4.90
2019-04-24T11:47:42.881Z,4.90
2019-04-24T11:52:04.539Z,4.57
2019-04-24T12:00:05.363Z,4.43
2019-04-24T12:05:00.686Z,4.57
2019-04-24T12:08:58.744Z,4.20
2019-04-24T12:17:39.273Z,4.77
2019-04-24T12:26:02.959Z,5.47
2019-04-24T12:30:02.672Z,3.93
2019-04-24T12:34:16.519Z,4.50
2019-04-24T12:38:41.455Z,4.87
2019-04-24T12:51:04.492Z,4.00
2019-04-24T12:59:43.943Z,4.30
2019-04-24T13:04:16.009Z,4.50
2019-04-24T13:20:49.479Z,4.50
2019-04-24T13:25:27.731Z,4.30
2019-04-24T13:29:50.978Z,4.90
2019-04-24T13:42:26.741Z,5.00
2019-04-24T13:46:13.327Z,4.63
2019-04-24T13:54:54.308Z,3.90
2019-04-24T14:07:26.080Z,3.93
2019-04-24T14:15:47.081Z,4.23
2019-04-24T14:19:59.362Z,4.10
2019-04-24T14:24:07.436Z,4.70
2019-04-24T14:28:24.886Z,4.00
2019-04-24T14:32:45.365Z,4.30
2019-04-24T14:40:48.806Z,3.80
2019-04-24T14:45:07.228Z,4.40
2019-04-24T14:49:28.790Z,4.10
2019-04-24T14:53:19.786Z,4.27
2019-04-24T15:01:47.918Z,4.00
2019-04-24T15:06:00.086Z,4.23
2019-04-24T15:09:58.486Z,3.80
2019-04-24T15:14:22.674Z,3.87
2019-04-24T15:18:29.915Z,3.57
2019-04-24T15:22:48.169Z,4.20
2019-04-24T15:26:50.938Z,4.00
2019-04-24T15:30:56.387Z,4.40
2019-04-24T15:39:20.491Z,4.30
2019-04-24T15:43:25.469Z,3.80
2019-04-24T15:48:05.993Z,3.80
2019-04-24T15:51:32.102Z,3.43
2019-04-24T15:55:36.327Z,4.07
2019-04-24T16:00:06.707Z,4.50
2019-04-24T16:04:29.697Z,3.67
2019-04-24T16:08:09.757Z,4.10
2019-04-24T16:12:18.208Z,4.00
2019-04-24T16:16:55.130Z,5.33
2019-04-24T16:25:33.278Z,4.03
2019-04-24T16:33:38.993Z,4.13
2019-04-24T16:37:50.711Z,3.90
2019-04-24T16:50:33.843Z,4.90
2019-04-24T16:54:23.480Z,3.90
2019-04-24T17:03:04.769Z,4.23
2019-04-24T17:11:20.757Z,4.07
2019-04-24T17:15:23.077Z,3.63
2019-04-24T17:19:55.875Z,4.07
2019-04-24T17:24:05.891Z,4.80
2019-04-24T17:32:28.574Z,4.30
2019-04-24T17:36:22.061Z,3.17
2019-04-24T17:40:16.882Z,6.27
2019-04-24T17:44:57.011Z,4.67
2019-04-24T17:49:11.541Z,4.80
2019-04-24T17:57:24.468Z,2.83
2019-04-24T18:01:08.191Z,2.23
2019-04-24T18:05:17.230Z,2.40
2019-04-24T18:09:26.150Z,2.00
2019-04-24T18:13:34.885Z,1.93
2019-04-24T18:17:43.456Z,2.12
2019-04-24T18:21:52.383Z,2.63
2019-04-24T18:30:22.186Z,2.20
2019-04-24T18:34:31.843Z,2.40
2019-04-24T18:38:42.106Z,2.40
2019-04-24T18:42:50.940Z,2.50
2019-04-24T18:47:02.138Z,2.10
2019-04-24T18:51:11.211Z,2.30
2019-04-24T18:55:20.048Z,2.20
2019-04-24T18:59:30.491Z,2.53
2019-04-24T19:03:39.215Z,2.10
2019-04-24T19:07:47.704Z,2.50
2019-04-24T19:11:56.277Z,2.67
2019-04-24T19:16:04.920Z,1.90
2019-04-24T19:20:13.478Z,2.27
2019-04-24T19:24:21.947Z,2.20
2019-04-24T19:28:32.157Z,2.43
2019-04-24T19:32:41.732Z,2.40
2019-04-24T19:36:50.635Z,2.10
2019-04-24T19:40:59.082Z,2.20
2019-04-24T19:45:07.699Z,1.80
2019-04-24T19:49:16.284Z,2.27
2019-04-24T19:53:26.379Z,2.40
2019-04-24T19:57:35.095Z,2.33
2019-04-24T20:01:43.571Z,2.73
2019-04-24T20:05:53.774Z,2.10
2019-04-24T20:10:11.180Z,2.30
2019-04-24T20:14:21.139Z,1.97
2019-04-24T20:18:29.664Z,2.20
2019-04-24T20:22:38.157Z,2.63
2019-04-24T20:26:46.630Z,2.30
2019-04-24T20:30:55.102Z,2.10
2019-04-24T20:35:22.907Z,2.07
2019-04-24T20:39:31.789Z,2.40
2019-04-24T20:43:41.701Z,2.40
2019-04-24T20:47:50.913Z,3.10
2019-04-24T20:51:59.371Z,3.37
2019-04-24T20:56:08.533Z,4.05
2019-04-24T21:00:18.911Z,3.80
2019-04-24T21:04:28.125Z,3.90
2019-04-24T21:08:41.000Z,3.40
2019-04-24T21:12:49.727Z,3.10
2019-04-24T21:16:58.211Z,3.60
2019-04-24T21:21:06.727Z,2.90
2019-04-24T21:25:15.218Z,3.03
2019-04-24T21:29:24.641Z,3.33
2019-04-24T21:33:33.958Z,3.60
2019-04-24T21:37:42.727Z,3.67
2019-04-24T21:41:51.698Z,3.57
2019-04-24T21:46:01.441Z,3.47
2019-04-24T21:50:11.416Z,3.20
2019-04-24T21:54:21.350Z,3.40
2019-04-24T21:58:29.979Z,3.50
2019-04-24T22:02:43.810Z,3.17
2019-04-24T22:06:54.493Z,3.43
2019-04-24T22:11:03.236Z,3.23
2019-04-24T22:15:14.067Z,2.93
2019-04-24T22:19:22.706Z,2.83
2019-04-24T22:23:48.119Z,2.47
2019-04-24T22:27:56.563Z,2.77
2019-04-24T22:32:22.109Z,2.10
2019-04-24T22:36:32.674Z,2.20
2019-04-24T22:40:45.519Z,2.60
2019-04-24T22:44:54.134Z,2.30
2019-04-24T22:49:02.629Z,2.20
2019-04-24T22:53:12.167Z,3.40
2019-04-24T22:57:22.284Z,2.60
2019-04-24T23:01:31.426Z,2.10
2019-04-24T23:05:40.304Z,2.00
2019-04-24T23:09:48.801Z,3.10
2019-04-24T23:13:57.513Z,3.13
2019-04-24T23:18:06.198Z,2.10
2019-04-24T23:22:16.332Z,2.60
2019-04-24T23:26:26.428Z,2.70
2019-04-24T23:34:54.491Z,2.93
2019-04-24T23:39:03.223Z,3.10
2019-04-24T23:43:12.079Z,3.10
2019-04-24T23:47:20.834Z,2.50
2019-04-24T23:51:29.314Z,2.70
2019-04-24T23:55:37.843Z,3.50
2019-04-24T23:59:46.932Z,3.00
